Time;durP1;ratioP1;P1;durP2;ratioP2;P2;SDS_P1;SDS_P2;PMS_P1;PMS_P2;Temp;Humidity;BMP_temperature;BMP_pressure;BME280_temperature;BME280_humidity;BME280_pressure;Samples;Min_cycle;Max_cycle;Signal;HPM_P1;HPM_P2
2022/10/24 00:01:39;;;;;;;2.97;1.10;;;;;;;20.35;58.23;98281.59;4992596;28;104330;-70
2022/10/24 00:04:06;;;;;;;2.83;1.13;;;;;;;20.37;58.67;98287.63;4992469;28;104528;-70
2022/10/24 00:06:34;;;;;;;3.65;1.23;;;;;;;20.39;58.37;98282.91;4989252;28;103111;-69
2022/10/24 00:09:02;;;;;;;2.55;1.00;;;;;;;20.43;58.02;98276.16;4990771;28;102838;-70
2022/10/24 00:11:31;;;;;;;3.95;1.25;;;;;;;20.29;58.39;98292.22;4993922;28;103835;-70
2022/10/24 00:13:59;;;;;;;3.75;1.35;;;;;;;20.38;58.37;98283.91;4993813;28;104209;-70
2022/10/24 00:16:27;;;;;;;4.95;1.27;;;;;;;20.39;58.69;98284.75;4995003;28;103820;-70
2022/10/24 00:18:55;;;;;;;6.60;1.20;;;;;;;20.32;58.46;98281.13;4988088;28;103282;-70
2022/10/24 00:21:23;;;;;;;6.05;1.33;;;;;;;20.37;58.20;98287.63;4992799;28;104342;-70
2022/10/24 00:23:51;;;;;;;3.05;1.23;;;;;;;20.30;58.65;98293.88;4990920;28;103243;-70
2022/10/24 00:26:19;;;;;;;2.95;1.10;;;;;;;20.36;58.42;98277.91;4993356;28;102734;-70
2022/10/24 00:28:48;;;;;;;3.08;1.08;;;;;;;20.21;59.31;98285.88;4992953;28;104300;-70
2022/10/24 00:31:18;;;;;;;5.28;1.40;;;;;;;20.07;59.53;98294.72;4992223;28;104178;-70
2022/10/24 00:33:46;;;;;;;3.67;1.33;;;;;;;20.11;59.32;98296.03;4991552;28;103166;-70
2022/10/24 00:36:15;;;;;;;4.47;1.55;;;;;;;20.01;60.00;98306.19;4989901;28;102947;-70
2022/10/24 00:38:43;;;;;;;4.82;1.50;;;;;;;20.06;59.88;98309.16;4990036;28;102800;-70
2022/10/24 00:41:14;;;;;;;4.38;1.30;;;;;;;20.02;59.69;98312.34;4991141;28;104878;-70
2022/10/24 00:43:42;;;;;;;4.28;1.15;;;;;;;20.07;59.76;98310.00;4992276;28;103258;-70
2022/10/24 00:46:12;;;;;;;4.22;1.40;;;;;;;20.05;59.76;98315.53;4989595;28;102799;-70
2022/10/24 00:48:42;;;;;;;5.07;1.08;;;;;;;20.11;59.34;98314.81;4994825;28;103710;-70
2022/10/24 00:51:20;;;;;;;4.57;1.13;;;;;;;20.18;59.34;98312.25;4998455;28;103087;-70
2022/10/24 00:53:50;;;;;;;2.55;1.17;;;;;;;20.00;59.75;98309.88;5000251;28;104199;-70
2022/10/24 00:56:21;;;;;;;4.13;1.08;;;;;;;20.16;59.59;98309.72;4996662;28;103011;-70
2022/10/24 00:58:50;;;;;;;4.40;1.10;;;;;;;20.11;60.02;98303.25;5005730;28;102793;-70
2022/10/24 01:01:19;;;;;;;3.55;0.90;;;;;;;19.95;61.22;98317.63;5009534;27;104384;-70
2022/10/24 01:03:47;;;;;;;3.13;0.90;;;;;;;19.94;61.42;98317.78;4998438;28;103133;-70
2022/10/24 01:06:33;;;;;;;6.07;1.52;;;;;;;19.67;62.68;98319.16;4997932;28;104244;-70
2022/10/24 01:09:15;;;;;;;5.20;1.58;;;;;;;19.45;62.86;98319.94;4997235;28;103767;-70
2022/10/24 01:11:53;;;;;;;3.42;1.15;;;;;;;19.56;62.75;98322.22;4995129;28;103454;-70
2022/10/24 01:14:33;;;;;;;2.75;0.98;;;;;;;19.58;62.92;98313.00;4997779;28;103055;-70
2022/10/24 01:17:10;;;;;;;2.20;1.00;;;;;;;19.63;63.02;98315.16;4995162;28;102736;-71
2022/10/24 01:20:15;;;;;;;2.38;0.80;;;;;;;19.57;64.01;98322.03;4995700;28;102775;-70
2022/10/24 01:22:59;;;;;;;4.60;1.38;;;;;;;19.52;62.96;98331.63;4966717;28;104237;-70
2022/10/24 01:25:41;;;;;;;4.53;1.60;;;;;;;19.44;62.75;98329.00;4997168;28;103412;-70
2022/10/24 01:28:12;;;;;;;2.38;0.90;;;;;;;19.48;62.38;98319.59;4993076;28;102681;-70
2022/10/24 01:30:45;;;;;;;4.90;1.58;;;;;;;19.46;62.48;98316.25;4998153;28;104169;-70
2022/10/24 01:33:21;;;;;;;3.65;1.35;;;;;;;19.57;62.23;98318.53;4997121;28;104801;-70
2022/10/24 01:35:54;;;;;;;5.90;1.38;;;;;;;19.57;62.28;98323.88;4996579;28;103260;-70
2022/10/24 01:38:28;;;;;;;4.95;1.88;;;;;;;19.47;62.66;98315.25;4998172;28;102735;-70
2022/10/24 01:41:00;;;;;;;4.53;1.30;;;;;;;19.48;62.32;98331.13;4998029;28;102923;-70
2022/10/24 01:43:36;;;;;;;6.35;1.98;;;;;;;19.36;63.17;98326.31;4994678;28;103266;-69
2022/10/24 01:46:09;;;;;;;4.53;1.70;;;;;;;19.35;62.73;98319.28;4997819;28;103288;-69
2022/10/24 01:48:41;;;;;;;7.47;1.83;;;;;;;19.49;62.67;98316.75;4998015;28;103215;-70
2022/10/24 01:51:13;;;;;;;3.65;1.58;;;;;;;19.54;62.75;98319.72;4997717;28;103462;-70
2022/10/24 01:53:43;;;;;;;7.32;1.80;;;;;;;19.48;62.59;98319.59;4994029;28;104169;-70
2022/10/24 01:56:13;;;;;;;4.40;1.60;;;;;;;19.51;62.83;98329.94;4994793;28;103198;-70
2022/10/24 01:58:41;;;;;;;6.53;2.30;;;;;;;19.46;63.06;98327.81;4996601;28;102680;-70
2022/10/24 02:01:16;;;;;;;3.65;1.50;;;;;;;19.45;62.92;98320.75;4992704;28;103871;-70
2022/10/24 02:03:48;;;;;;;3.58;1.67;;;;;;;19.62;62.31;98324.22;4994536;28;103467;-69
2022/10/24 02:06:19;;;;;;;5.07;1.48;;;;;;;19.67;62.49;98324.50;4994107;28;103388;-70
2022/10/24 02:08:54;;;;;;;7.03;2.10;;;;;;;19.63;62.89;98321.34;4994718;28;102710;-70
2022/10/24 02:11:22;;;;;;;5.93;1.85;;;;;;;19.52;62.98;98326.25;4995384;28;102800;-70
2022/10/24 02:13:56;;;;;;;3.47;1.27;;;;;;;19.40;63.69;98335.69;4994380;28;104103;-70
2022/10/24 02:16:26;;;;;;;4.50;1.73;;;;;;;19.37;63.54;98341.41;4991731;28;103447;-70
2022/10/24 02:18:56;;;;;;;5.43;1.85;;;;;;;19.43;63.41;98338.03;4992488;28;102849;-71
2022/10/24 02:21:31;;;;;;;6.22;2.05;;;;;;;19.40;63.79;98327.66;4995197;28;103177;-70
2022/10/24 02:24:06;;;;;;;3.40;1.33;;;;;;;19.44;64.01;98318.28;4994589;28;103804;-70
2022/10/24 02:26:38;;;;;;;9.32;1.67;;;;;;;19.46;63.71;98317.09;4993361;28;103167;-70
2022/10/24 02:29:11;;;;;;;3.10;1.48;;;;;;;19.45;63.61;98309.25;4995382;28;103314;-70
2022/10/24 02:31:47;;;;;;;5.53;1.88;;;;;;;19.34;64.34;98306.91;4997194;28;103191;-70
2022/10/24 02:34:18;;;;;;;6.28;2.03;;;;;;;19.33;64.00;98307.91;4992982;28;103287;-70
2022/10/24 02:36:49;;;;;;;7.50;2.17;;;;;;;19.24;64.80;98300.94;4993562;28;103315;-69
2022/10/24 02:39:18;;;;;;;5.57;1.67;;;;;;;19.20;65.08;98294.28;4994211;28;102934;-70
2022/10/24 02:41:49;;;;;;;4.95;1.83;;;;;;;19.13;65.44;98286.09;4995980;28;104378;-70
2022/10/24 02:44:19;;;;;;;3.05;1.40;;;;;;;19.13;65.92;98285.25;4994448;28;103344;-71
2022/10/24 02:46:52;;;;;;;6.80;1.90;;;;;;;19.06;65.85;98288.63;5011438;27;104289;-71
2022/10/24 02:49:20;;;;;;;6.75;1.95;;;;;;;19.09;65.88;98282.09;4996311;28;103131;-71
2022/10/24 02:51:49;;;;;;;5.05;1.50;;;;;;;19.06;66.16;98271.72;5000425;28;103103;-70
2022/10/24 02:54:18;;;;;;;5.07;2.03;;;;;;;18.97;66.65;98278.97;4993960;28;105273;-70
2022/10/24 02:56:50;;;;;;;7.43;2.00;;;;;;;19.02;66.64;98275.78;4992166;28;103325;-70
2022/10/24 02:59:18;;;;;;;6.10;2.00;;;;;;;19.18;66.17;98266.81;4998086;28;102681;-69
2022/10/24 03:01:46;;;;;;;3.85;1.20;;;;;;;19.10;66.24;98273.91;4997011;28;102980;-69
2022/10/24 03:04:15;;;;;;;5.60;1.90;;;;;;;19.14;66.19;98278.91;4996101;28;103990;-70
2022/10/24 03:06:43;;;;;;;8.15;1.80;;;;;;;18.98;66.84;98274.44;4996523;28;103076;-69
2022/10/24 03:09:11;;;;;;;2.45;1.20;;;;;;;19.03;66.67;98288.97;4990056;28;102649;-69
2022/10/24 03:11:39;;;;;;;6.65;1.52;;;;;;;19.15;66.18;98286.75;5024359;27;102797;-70
2022/10/24 03:14:06;;;;;;;5.57;1.55;;;;;;;19.11;66.30;98294.28;4994851;28;103075;-69
2022/10/24 03:16:34;;;;;;;4.68;1.52;;;;;;;18.99;66.94;98293.00;4997271;28;103218;-69
2022/10/24 03:19:02;;;;;;;7.22;2.17;;;;;;;19.09;66.51;98292.78;4996592;28;102713;-69
2022/10/24 03:21:31;;;;;;;5.88;1.90;;;;;;;19.01;66.91;98296.34;4995074;28;102731;-69
2022/10/24 03:23:59;;;;;;;6.72;1.90;;;;;;;19.02;67.09;98292.66;4995799;28;104242;-69
2022/10/24 03:26:27;;;;;;;7.50;2.50;;;;;;;19.01;67.31;98291.00;4995010;28;103190;-70
2022/10/24 03:28:55;;;;;;;7.40;2.25;;;;;;;19.09;67.02;98288.28;4994452;28;102639;-71
2022/10/24 03:31:25;;;;;;;6.32;2.28;;;;;;;19.12;67.18;98297.81;4996649;28;104062;-70
2022/10/24 03:33:53;;;;;;;5.18;1.92;;;;;;;19.08;67.63;98313.41;4994280;28;103637;-70
2022/10/24 03:36:21;;;;;;;6.70;2.05;;;;;;;19.09;67.39;98320.41;4994004;28;104355;-72
2022/10/24 03:38:50;;;;;;;9.40;2.70;;;;;;;19.10;67.62;98311.38;4991802;28;103946;-71
2022/10/24 03:41:18;;;;;;;5.80;1.90;;;;;;;19.23;67.35;98304.63;4996036;28;103987;-71
2022/10/24 03:45:31;;;;;;;7.55;2.30;;;;;;;19.25;67.41;98298.09;5106554;27;102681;-72
2022/10/24 03:47:59;;;;;;;7.50;2.35;;;;;;;19.14;68.02;98294.97;5105654;27;102801;-72
2022/10/24 03:50:27;;;;;;;9.60;2.55;;;;;;;19.06;68.25;98285.09;5089439;27;103607;-72
2022/10/24 03:52:54;;;;;;;10.25;3.13;;;;;;;18.92;69.16;98297.38;5107336;27;103297;-72
2022/10/24 03:55:22;;;;;;;7.15;2.25;;;;;;;18.97;68.86;98295.03;5092716;27;102657;-72
2022/10/24 03:57:50;;;;;;;7.03;2.63;;;;;;;19.03;69.08;98294.31;5081389;27;102682;-72
2022/10/24 04:00:18;;;;;;;4.95;2.17;;;;;;;18.88;69.71;98306.78;5113518;27;103582;-72
2022/10/24 04:02:49;;;;;;;5.55;2.08;;;;;;;18.84;70.23;98297.41;5102699;27;103218;-73
2022/10/24 04:05:17;;;;;;;5.57;2.13;;;;;;;18.82;70.73;98299.44;5105504;27;102680;-71
2022/10/24 04:07:45;;;;;;;8.52;2.55;;;;;;;18.87;70.27;98298.91;5087442;27;103932;-72
2022/10/24 04:10:16;;;;;;;8.88;2.70;;;;;;;18.74;71.68;98307.50;5102095;27;104419;-71
2022/10/24 04:12:44;;;;;;;7.13;2.10;;;;;;;18.88;71.04;98304.09;5101972;27;103224;-72
2022/10/24 04:15:12;;;;;;;7.88;2.67;;;;;;;18.95;70.91;98313.09;5084808;27;103062;-72
2022/10/24 04:17:40;;;;;;;4.57;2.25;;;;;;;19.02;70.63;98316.75;5110286;27;103579;-71
2022/10/24 04:20:10;;;;;;;5.55;2.38;;;;;;;18.98;70.75;98315.44;5085942;27;104257;-71
2022/10/24 04:22:38;;;;;;;7.47;2.30;;;;;;;19.09;70.46;98319.56;5102479;27;103240;-72
2022/10/24 04:25:06;;;;;;;6.13;1.80;;;;;;;19.23;69.93;98316.16;5086121;27;103957;-72
2022/10/24 04:27:39;;;;;;;3.83;1.48;;;;;;;19.31;69.40;98315.31;5085872;27;102791;-71
2022/10/24 04:30:08;;;;;;;9.93;2.20;;;;;;;19.30;69.47;98316.31;5106941;27;103627;-72
2022/10/24 04:32:43;;;;;;;8.48;2.30;;;;;;;19.27;69.76;98316.66;5107511;27;103285;-71
2022/10/24 04:35:13;;;;;;;7.15;2.30;;;;;;;19.18;70.10;98302.47;5087129;27;102642;-71
2022/10/24 04:37:41;;;;;;;5.95;1.73;;;;;;;19.21;70.19;98306.63;5110707;27;103844;-72
2022/10/24 04:40:10;;;;;;;7.50;2.55;;;;;;;18.95;71.24;98299.72;5108324;27;103678;-69
2022/10/24 04:42:38;;;;;;;9.43;2.78;;;;;;;18.99;71.63;98298.38;5101696;27;103324;-69
2022/10/24 04:45:07;;;;;;;9.15;2.38;;;;;;;18.97;71.41;98289.69;5083156;27;102975;-69
2022/10/24 04:47:35;;;;;;;5.60;2.67;;;;;;;19.01;71.50;98290.16;5084988;27;102873;-71
2022/10/24 04:50:04;;;;;;;10.27;2.58;;;;;;;18.89;72.05;98287.00;5108572;27;103735;-71
2022/10/24 04:52:33;;;;;;;8.82;2.85;;;;;;;18.81;72.55;98289.72;5109980;27;103236;-72
2022/10/24 04:55:04;;;;;;;8.20;2.08;;;;;;;18.83;72.67;98301.13;5102561;27;102569;-71
2022/10/24 04:57:31;;;;;;;6.22;2.50;;;;;;;18.87;72.24;98307.78;5089494;27;103689;-71
2022/10/24 04:59:59;;;;;;;8.10;2.40;;;;;;;18.84;72.83;98310.78;5089743;27;106017;-71
2022/10/24 05:02:27;;;;;;;6.25;2.22;;;;;;;18.93;72.08;98300.88;5091460;27;103218;-71
2022/10/24 05:04:58;;;;;;;4.20;2.22;;;;;;;18.98;72.06;98311.91;5073747;27;102693;-72
2022/10/24 05:07:29;;;;;;;5.32;2.42;;;;;;;18.96;72.04;98308.59;5036654;27;102952;-72
2022/10/24 05:09:58;;;;;;;8.98;2.67;;;;;;;18.79;72.99;98305.13;5063184;27;104488;-72
2022/10/24 05:12:26;;;;;;;3.55;2.10;;;;;;;18.82;72.72;98302.09;5082308;27;103191;-72
2022/10/24 05:14:54;;;;;;;9.20;3.03;;;;;;;18.62;73.64;98300.81;5077863;27;103160;-72
2022/10/24 05:17:22;;;;;;;4.90;1.98;;;;;;;18.65;73.10;98305.84;5081516;27;103022;-72
2022/10/24 05:19:50;;;;;;;6.88;2.55;;;;;;;18.69;72.73;98307.16;5085773;27;103074;-72
2022/10/24 05:22:18;;;;;;;7.45;2.28;;;;;;;18.65;72.45;98305.84;5076329;27;103356;-72
2022/10/24 05:24:46;;;;;;;9.10;2.78;;;;;;;18.63;72.20;98307.00;5046711;27;104566;-75
2022/10/24 05:27:19;;;;;;;6.88;2.40;;;;;;;18.69;71.10;98301.81;5017320;27;102813;-74
2022/10/24 05:29:47;;;;;;;7.63;2.13;;;;;;;18.81;70.53;98303.09;5018660;27;103476;-72
2022/10/24 05:32:15;;;;;;;8.73;2.13;;;;;;;18.99;69.58;98309.06;5012906;27;103443;-73
2022/10/24 05:34:42;;;;;;;7.55;2.78;;;;;;;19.06;69.17;98320.75;5015550;27;103945;-74
2022/10/24 05:37:10;;;;;;;5.85;2.40;;;;;;;19.11;69.20;98329.09;5028066;27;103771;-74
2022/10/24 05:39:38;;;;;;;5.63;2.25;;;;;;;19.10;69.33;98338.16;5032186;27;103334;-74
2022/10/24 05:42:06;;;;;;;6.20;1.77;;;;;;;19.18;69.41;98339.09;5024595;27;103179;-74
2022/10/24 05:44:35;;;;;;;7.35;2.45;;;;;;;19.11;70.44;98339.00;5035230;27;102653;-75
2022/10/24 05:47:03;;;;;;;3.83;2.00;;;;;;;19.00;71.60;98345.53;5019002;27;103141;-75
2022/10/24 05:49:31;;;;;;;4.20;1.85;;;;;;;18.77;73.36;98331.22;5053479;27;103845;-74
2022/10/24 05:51:59;;;;;;;6.38;1.95;;;;;;;18.89;74.09;98329.03;5049363;27;103235;-76
2022/10/24 05:54:27;;;;;;;8.52;2.55;;;;;;;18.57;77.17;98332.59;5052717;27;102924;-75
2022/10/24 05:57:15;;;;;;;8.02;2.60;;;;;;;18.63;78.69;98329.25;5050033;27;102808;-75
2022/10/24 05:59:44;;;;;;;8.20;2.00;;;;;;;18.72;78.24;98333.59;5048435;27;103934;-75
2022/10/24 06:02:17;;;;;;;6.22;2.03;;;;;;;18.65;79.66;98331.75;5047057;27;103190;-75
2022/10/24 06:04:45;;;;;;;5.68;1.75;;;;;;;18.74;78.48;98342.28;5042388;27;102765;-75
2022/10/24 06:07:14;;;;;;;8.00;2.55;;;;;;;18.50;79.93;98347.63;5023604;27;102738;-75
2022/10/24 06:09:42;;;;;;;8.00;2.70;;;;;;;18.48;80.84;98346.97;5047309;27;103278;-76
2022/10/24 06:12:11;;;;;;;4.35;2.03;;;;;;;18.14;81.70;98348.97;5034381;27;103256;-75
2022/10/24 06:14:39;;;;;;;7.47;2.67;;;;;;;18.07;81.53;98369.34;5062494;27;103007;-75
2022/10/24 06:17:10;;;;;;;6.75;2.33;;;;;;;18.01;81.92;98370.84;5061551;27;102597;-75
2022/10/24 06:19:39;;;;;;;7.15;2.58;;;;;;;18.11;82.43;98376.88;5060549;27;103360;-75
2022/10/24 06:22:08;;;;;;;4.00;1.73;;;;;;;18.27;80.95;98390.22;5062272;27;103295;-75
2022/10/24 06:24:37;;;;;;;6.82;2.03;;;;;;;18.06;81.01;98394.41;5062160;27;102762;-75
2022/10/24 06:27:05;;;;;;;6.43;2.05;;;;;;;18.13;80.96;98390.09;5047479;27;102989;-74
2022/10/24 06:29:34;;;;;;;5.60;2.17;;;;;;;18.05;81.00;98388.22;5060203;27;103574;-74
2022/10/24 06:32:02;;;;;;;3.65;1.85;;;;;;;18.03;81.33;98378.69;5043731;27;103366;-74
2022/10/24 06:34:34;;;;;;;5.30;2.17;;;;;;;18.28;80.03;98383.91;5062873;27;102591;-75
2022/10/24 06:37:02;;;;;;;7.25;2.05;;;;;;;18.42;80.38;98383.22;5046056;27;102809;-75
2022/10/24 06:39:30;;;;;;;4.60;1.75;;;;;;;18.51;80.33;98381.41;5042343;27;103250;-75
2022/10/24 06:41:57;;;;;;;5.38;1.83;;;;;;;18.48;80.99;98392.47;5063033;27;103503;-75
2022/10/24 06:44:26;;;;;;;3.85;1.73;;;;;;;18.38;81.24;98394.44;5061652;27;102805;-75
2022/10/24 06:46:54;;;;;;;3.97;2.03;;;;;;;18.43;81.31;98397.44;5044091;27;102723;-75
2022/10/24 06:49:21;;;;;;;2.85;1.63;;;;;;;18.53;80.46;98398.13;5061295;27;104160;-75
2022/10/24 06:51:51;;;;;;;6.75;1.88;;;;;;;18.30;82.81;98397.13;5044387;27;103385;-74
2022/10/24 06:54:19;;;;;;;5.75;2.35;;;;;;;18.25;81.61;98404.78;5063193;27;102638;-75
2022/10/24 06:56:46;;;;;;;5.85;2.00;;;;;;;18.36;81.22;98412.47;5050397;27;104155;-74
2022/10/24 06:59:17;;;;;;;3.92;2.10;;;;;;;18.47;81.03;98409.47;5061217;27;104112;-75
2022/10/24 07:01:45;;;;;;;4.70;2.20;;;;;;;18.40;81.60;98413.81;5062253;27;103243;-75
2022/10/24 07:04:13;;;;;;;7.93;2.00;;;;;;;18.56;81.07;98421.88;5061684;27;102938;-74
2022/10/24 07:06:41;;;;;;;11.57;3.20;;;;;;;18.14;84.24;98453.22;5046784;27;102785;-75
2022/10/24 07:09:12;;;;;;;10.43;3.13;;;;;;;18.02;87.44;98446.53;5048829;27;104222;-76
2022/10/24 07:11:42;;;;;;;7.28;2.40;;;;;;;17.99;87.94;98429.00;5061149;27;103197;-75
2022/10/24 07:14:11;;;;;;;6.50;2.33;;;;;;;17.78;86.53;98410.72;5059606;27;102628;-76
2022/10/24 07:16:41;;;;;;;9.77;2.28;;;;;;;17.94;87.28;98423.28;5063542;27;102761;-75
2022/10/24 07:19:10;;;;;;;6.32;2.67;;;;;;;18.05;87.39;98408.78;5062310;27;103976;-77
2022/10/24 07:21:38;;;;;;;7.30;2.17;;;;;;;18.00;88.26;98416.44;5061836;27;103261;-75
2022/10/24 07:24:07;;;;;;;3.15;1.67;;;;;;;18.19;87.54;98425.00;5061075;27;102636;-75
2022/10/24 07:26:36;;;;;;;5.85;2.40;;;;;;;18.20;87.85;98429.34;5062439;27;103106;-75
2022/10/24 07:29:04;;;;;;;8.95;3.05;;;;;;;18.14;88.27;98429.16;5047964;27;103257;-74
2022/10/24 07:31:34;;;;;;;5.45;1.88;;;;;;;18.15;89.06;98420.16;5061819;27;103239;-73
2022/10/24 07:34:05;;;;;;;5.13;2.10;;;;;;;18.27;88.57;98418.84;5062006;27;103194;-74
2022/10/24 07:36:33;;;;;;;4.38;2.00;;;;;;;18.24;88.68;98409.31;5060749;27;103991;-74
2022/10/24 07:39:03;;;;;;;3.25;1.60;;;;;;;18.37;88.54;98408.81;5061910;27;103948;-73
2022/10/24 07:41:32;;;;;;;6.03;2.63;;;;;;;18.34;88.78;98419.84;5056907;27;105187;-74
2022/10/24 07:44:02;;;;;;;9.63;3.10;;;;;;;18.16;89.76;98405.78;5056827;27;102804;-73
2022/10/24 07:46:30;;;;;;;7.55;2.92;;;;;;;18.14;89.20;98413.13;5061599;27;104048;-74
2022/10/24 07:48:58;;;;;;;5.40;2.33;;;;;;;17.91;90.08;98419.09;5048367;27;103324;-74
2022/10/24 07:51:27;;;;;;;6.00;2.25;;;;;;;18.01;89.43;98415.44;5061185;27;103198;-73
2022/10/24 07:53:56;;;;;;;7.80;2.70;;;;;;;18.11;89.27;98408.94;5060826;27;102781;-74
2022/10/24 07:56:24;;;;;;;7.18;2.42;;;;;;;18.10;89.31;98406.44;5060765;27;102670;-73
2022/10/24 07:58:52;;;;;;;6.60;2.50;;;;;;;18.12;88.83;98405.28;5058570;27;103719;-74
2022/10/24 08:01:23;;;;;;;4.20;2.75;;;;;;;17.90;90.09;98420.13;5060465;27;103273;-74
2022/10/24 08:03:51;;;;;;;8.15;2.45;;;;;;;17.97;89.70;98428.28;5047836;27;103469;-74
2022/10/24 08:06:22;;;;;;;8.95;2.88;;;;;;;17.82;90.85;98436.09;5042676;27;104708;-74
2022/10/24 08:08:49;;;;;;;8.50;2.97;;;;;;;17.79;91.78;98436.44;5061286;27;103514;-74
2022/10/24 08:11:20;;;;;;;6.45;2.80;;;;;;;17.59;92.27;98437.72;5059561;27;103888;-74
2022/10/24 08:13:49;;;;;;;4.63;2.35;;;;;;;17.66;91.68;98440.56;5061217;27;102728;-74
2022/10/24 08:16:20;;;;;;;5.85;2.58;;;;;;;17.70;90.08;98434.75;5045650;27;102805;-74
2022/10/24 08:18:50;;;;;;;5.85;2.30;;;;;;;17.74;89.00;98440.63;5058110;27;103681;-74
2022/10/24 08:21:20;;;;;;;4.07;2.40;;;;;;;18.01;87.65;98420.78;5041785;27;106190;-74
2022/10/24 08:23:50;;;;;;;5.68;1.95;;;;;;;17.85;88.03;98409.06;5060235;27;103028;-74
2022/10/24 08:26:23;;;;;;;10.77;2.80;;;;;;;17.92;87.96;98394.06;5046049;27;104671;-75
2022/10/24 08:28:51;;;;;;;6.07;3.05;;;;;;;17.81;88.98;98391.69;5060214;27;104068;-74
2022/10/24 08:31:20;;;;;;;6.70;2.90;;;;;;;18.08;88.72;98389.75;5062142;27;103184;-74
2022/10/24 08:33:52;;;;;;;6.80;2.75;;;;;;;18.23;86.42;98404.97;5064380;27;102511;-74
2022/10/24 08:36:23;;;;;;;5.50;2.60;;;;;;;18.19;85.95;98408.13;5063305;27;103551;-74
2022/10/24 08:38:51;;;;;;;5.35;2.42;;;;;;;18.26;85.17;98403.78;5064508;27;103035;-75
2022/10/24 08:41:26;;;;;;;3.58;1.63;;;;;;;18.18;84.80;98409.13;5064696;27;103393;-75
2022/10/24 08:43:56;;;;;;;6.55;2.10;;;;;;;18.31;85.17;98409.47;5064142;27;103005;-76
2022/10/24 08:46:37;;;;;;;4.78;1.98;;;;;;;18.26;85.59;98407.31;5064172;27;102749;-75
2022/10/24 08:49:15;;;;;;;5.95;2.13;;;;;;;18.40;85.38;98413.81;5060245;27;103104;-73
2022/10/24 08:51:47;;;;;;;3.78;1.95;;;;;;;18.32;86.25;98411.16;5059890;27;103312;-73
2022/10/24 08:54:22;;;;;;;6.40;2.33;;;;;;;18.14;86.08;98413.13;5064412;27;102661;-74
2022/10/24 08:56:54;;;;;;;5.05;2.10;;;;;;;18.15;86.87;98431.69;5062368;27;102596;-74
2022/10/24 08:59:22;;;;;;;3.35;1.75;;;;;;;18.13;86.32;98433.69;5064015;27;104379;-73
2022/10/24 09:01:55;;;;;;;4.90;2.35;;;;;;;18.13;86.25;98419.50;5063221;27;103212;-74
2022/10/24 09:04:36;;;;;;;5.50;2.20;;;;;;;18.17;84.58;98413.63;5060886;27;103224;-74
2022/10/24 09:07:09;;;;;;;5.38;1.90;;;;;;;18.24;84.60;98419.16;5055315;27;102732;-73
2022/10/24 09:09:43;;;;;;;4.70;2.03;;;;;;;18.17;85.34;98412.78;5060971;27;103484;-74
2022/10/24 09:12:13;;;;;;;5.80;2.20;;;;;;;18.26;85.18;98422.50;5060191;27;103336;-74
2022/10/24 09:14:45;;;;;;;4.05;1.63;;;;;;;18.03;85.27;98429.47;5063772;27;102653;-74
2022/10/24 09:17:20;;;;;;;3.75;1.83;;;;;;;18.13;85.50;98441.72;5064846;27;103936;-74
2022/10/24 09:19:53;;;;;;;3.70;1.90;;;;;;;18.09;84.58;98436.84;5058963;27;104103;-74
2022/10/24 09:22:22;;;;;;;4.63;2.38;;;;;;;17.98;85.32;98453.19;5056055;27;103078;-73
2022/10/24 09:24:53;;;;;;;3.85;1.75;;;;;;;18.00;85.71;98467.22;5063046;27;102562;-73
2022/10/24 09:27:25;;;;;;;4.88;2.40;;;;;;;18.15;84.52;98466.44;5040617;27;104237;-74
2022/10/24 09:29:53;;;;;;;5.03;2.05;;;;;;;17.94;84.69;98469.56;5036431;27;104002;-73
2022/10/24 09:32:25;;;;;;;6.22;2.20;;;;;;;17.86;85.44;98469.53;5057228;27;103253;-74
2022/10/24 09:34:55;;;;;;;3.90;1.67;;;;;;;18.05;84.73;98463.06;5055714;27;102982;-74
2022/10/24 09:37:37;;;;;;;4.90;2.42;;;;;;;18.07;84.75;98469.09;5041161;27;103831;-74
2022/10/24 09:40:17;;;;;;;6.63;2.00;;;;;;;18.05;85.12;98465.72;5035686;27;104268;-74
2022/10/24 09:42:51;;;;;;;4.88;2.15;;;;;;;18.07;84.05;98468.25;5038802;27;104242;-74
2022/10/24 09:45:29;;;;;;;7.60;2.33;;;;;;;18.34;83.39;98462.63;5056896;27;102663;-73
2022/10/24 09:47:59;;;;;;;7.07;2.35;;;;;;;18.26;84.47;98457.25;5033380;27;103253;-73
2022/10/24 09:50:30;;;;;;;5.10;1.92;;;;;;;18.29;83.95;98460.44;5055765;27;103363;-74
2022/10/24 09:52:59;;;;;;;5.40;2.13;;;;;;;18.36;83.60;98449.91;5056327;27;103366;-74
2022/10/24 09:55:30;;;;;;;4.55;1.63;;;;;;;18.43;83.28;98456.28;5053226;27;102666;-73
2022/10/24 09:58:04;;;;;;;7.05;2.40;;;;;;;18.48;83.27;98456.66;5038128;27;103349;-73
2022/10/24 10:00:34;;;;;;;3.60;2.10;;;;;;;18.50;83.86;98451.97;5036405;27;103426;-73
2022/10/24 10:03:04;;;;;;;4.95;2.10;;;;;;;18.60;83.23;98452.66;5049617;27;103247;-73
2022/10/24 10:05:44;;;;;;;5.03;2.05;;;;;;;18.61;83.16;98465.00;5038072;27;104088;-73
2022/10/24 10:08:18;;;;;;;6.32;2.42;;;;;;;18.57;83.47;98462.84;5053817;27;103694;-73
2022/10/24 10:10:59;;;;;;;4.85;2.42;;;;;;;18.47;84.39;98463.78;5052710;27;104009;-74
2022/10/24 10:13:28;;;;;;;6.18;2.80;;;;;;;18.39;85.49;98462.94;5049858;27;104207;-73
2022/10/24 10:15:57;;;;;;;8.60;2.90;;;;;;;18.21;86.85;98455.09;5041573;27;102638;-74
2022/10/24 10:18:29;;;;;;;9.07;2.78;;;;;;;18.18;87.75;98457.25;5047081;27;102957;-74
2022/10/24 10:21:03;;;;;;;11.80;3.35;;;;;;;18.41;86.38;98452.94;5046687;27;103880;-74
2022/10/24 10:23:33;;;;;;;4.55;2.17;;;;;;;18.54;85.88;98458.66;5057919;27;103220;-74
2022/10/24 10:26:14;;;;;;;4.90;2.72;;;;;;;18.43;86.33;98453.59;5040263;27;102689;-74
2022/10/24 10:28:46;;;;;;;6.57;2.67;;;;;;;18.59;86.16;98452.81;5055809;27;104096;-74
2022/10/24 10:31:21;;;;;;;5.20;3.15;;;;;;;18.57;86.69;98447.63;5041267;27;103382;-75
2022/10/24 10:34:02;;;;;;;6.75;2.92;;;;;;;18.60;85.81;98452.66;5037884;27;104398;-75
2022/10/24 10:36:35;;;;;;;9.23;2.88;;;;;;;18.65;84.15;98452.97;5057125;27;102681;-75
2022/10/24 10:39:22;;;;;;;4.32;1.88;;;;;;;18.65;82.99;98449.47;5059519;27;104132;-75
2022/10/24 10:41:58;;;;;;;5.88;2.30;;;;;;;18.45;82.60;98457.78;5058073;27;103189;-75
2022/10/24 10:44:43;;;;;;;5.20;2.10;;;;;;;18.77;80.71;98450.81;5057048;27;103268;-76
2022/10/24 10:47:18;;;;;;;4.45;1.90;;;;;;;18.75;79.63;98453.63;5055191;27;102796;-75
2022/10/24 10:49:56;;;;;;;3.42;2.03;;;;;;;18.56;79.52;98461.16;5041883;27;102877;-76
2022/10/24 10:52:31;;;;;;;3.85;1.40;;;;;;;18.76;79.17;98466.03;5055760;27;104458;-74
2022/10/24 10:55:28;;;;;;;4.93;1.58;;;;;;;18.64;78.96;98471.88;5054556;27;103055;-77
2022/10/24 10:58:05;;;;;;;4.43;1.50;;;;;;;18.70;79.31;98473.88;5063432;27;102705;-78
2022/10/24 11:00:47;;;;;;;4.65;1.83;;;;;;;18.65;78.36;98484.25;5060583;27;103796;-77
2022/10/24 11:03:28;;;;;;;4.72;1.80;;;;;;;18.47;78.16;98489.69;5034745;27;103313;-77
2022/10/24 11:06:09;;;;;;;3.10;1.58;;;;;;;18.51;77.98;98480.38;5046124;27;104079;-77
2022/10/24 11:08:52;;;;;;;3.55;1.67;;;;;;;18.77;77.27;98478.41;5037948;27;103249;-75
2022/10/24 11:11:24;;;;;;;5.22;1.58;;;;;;;18.55;77.24;98475.56;5039709;27;102791;-74
2022/10/24 11:13:59;;;;;;;2.72;1.40;;;;;;;18.61;77.28;98474.91;5056588;27;103796;-75
2022/10/24 11:16:29;;;;;;;3.63;1.52;;;;;;;18.57;76.93;98476.22;5054953;27;102633;-75
2022/10/24 11:19:01;;;;;;;3.45;1.35;;;;;;;18.61;76.97;98481.06;5058316;27;102740;-77
2022/10/24 11:21:34;;;;;;;3.50;1.25;;;;;;;18.50;76.59;98476.03;5058729;27;103018;-75
2022/10/24 11:24:11;;;;;;;3.17;1.50;;;;;;;18.55;76.25;98481.75;5038235;27;104291;-74
2022/10/24 11:26:43;;;;;;;6.93;1.52;;;;;;;18.71;75.92;98481.75;5054540;27;103723;-74
2022/10/24 11:29:19;;;;;;;2.95;1.40;;;;;;;18.70;76.08;98480.06;5056260;27;102698;-74
2022/10/24 11:31:52;;;;;;;3.33;1.15;;;;;;;18.82;75.95;98477.88;5036377;27;104087;-74
2022/10/24 11:34:31;;;;;;;3.80;1.40;;;;;;;18.68;75.32;98481.22;5057153;27;103815;-75
2022/10/24 11:37:06;;;;;;;2.40;1.13;;;;;;;18.81;75.04;98473.53;5035890;27;104292;-75
2022/10/24 11:39:44;;;;;;;4.90;1.58;;;;;;;18.63;74.92;98479.06;5057174;27;102816;-75
2022/10/24 11:42:19;;;;;;;2.72;1.15;;;;;;;18.67;75.14;98464.34;5054633;27;104183;-79
2022/10/24 11:44:53;;;;;;;2.22;1.35;;;;;;;18.64;75.74;98463.88;5053684;27;103293;-75